createdAt,value
2018-06-02T00:02:01.573Z,99.90
2018-06-02T00:04:29.849Z,99.90
2018-06-02T00:06:58.144Z,99.90
2018-06-02T00:09:25.680Z,99.90
2018-06-02T00:11:53.960Z,99.90
2018-06-02T00:14:22.244Z,99.90
2018-06-02T00:16:50.537Z,99.90
2018-06-02T00:19:18.068Z,99.90
2018-06-02T00:21:46.385Z,99.90
2018-06-02T00:24:13.907Z,99.90
2018-06-02T00:26:42.206Z,99.90
2018-06-02T00:29:09.707Z,99.90
2018-06-02T00:31:37.253Z,99.90
2018-06-02T00:34:04.773Z,99.90
2018-06-02T00:36:32.293Z,99.90
2018-06-02T00:38:59.817Z,99.90
2018-06-02T00:41:27.333Z,99.90
2018-06-02T00:43:55.607Z,99.90
2018-06-02T00:46:23.905Z,99.90
2018-06-02T00:48:51.408Z,99.90
2018-06-02T00:51:18.940Z,99.90
2018-06-02T00:53:46.486Z,99.90
2018-06-02T00:56:13.997Z,99.90
2018-06-02T00:58:41.504Z,99.90
2018-06-02T01:01:09.046Z,99.90
2018-06-02T01:03:37.316Z,99.90
2018-06-02T01:06:05.584Z,99.90
2018-06-02T01:08:33.904Z,99.90
2018-06-02T01:11:01.410Z,99.90
2018-06-02T01:13:28.939Z,99.90
2018-06-02T01:15:56.468Z,99.90
2018-06-02T01:18:23.993Z,99.90
2018-06-02T01:20:52.325Z,99.90
2018-06-02T01:23:19.818Z,99.90
2018-06-02T01:25:47.327Z,99.90
2018-06-02T01:28:14.844Z,99.90
2018-06-02T01:30:42.382Z,99.90
2018-06-02T01:33:10.015Z,99.90
2018-06-02T01:35:37.512Z,99.90
2018-06-02T01:38:05.054Z,99.90
2018-06-02T01:40:32.583Z,99.90
2018-06-02T01:43:00.094Z,99.90
2018-06-02T01:45:27.624Z,99.90
2018-06-02T01:47:55.129Z,99.90
2018-06-02T01:50:23.410Z,99.90
2018-06-02T01:52:51.718Z,99.90
2018-06-02T01:55:19.243Z,99.90
2018-06-02T01:57:47.516Z,99.90
2018-06-02T02:00:15.817Z,99.90
2018-06-02T02:02:43.336Z,99.90
2018-06-02T02:05:10.845Z,99.90
2018-06-02T02:07:38.386Z,99.90
2018-06-02T02:10:05.898Z,99.90
2018-06-02T02:12:33.391Z,99.90
2018-06-02T02:15:00.945Z,99.90
2018-06-02T02:17:29.214Z,99.90
2018-06-02T02:19:57.518Z,99.90
2018-06-02T02:22:25.045Z,99.90
2018-06-02T02:24:53.315Z,99.90
2018-06-02T02:27:20.842Z,99.90
2018-06-02T02:29:48.361Z,99.90
2018-06-02T02:32:16.638Z,99.90
2018-06-02T02:34:44.152Z,99.90
2018-06-02T02:37:11.705Z,99.90
2018-06-02T02:39:39.222Z,99.90
2018-06-02T02:42:06.765Z,99.90
2018-06-02T02:44:35.037Z,99.90
2018-06-02T02:47:03.321Z,99.90
2018-06-02T02:49:30.866Z,99.90
2018-06-02T02:51:59.134Z,99.90
2018-06-02T02:54:26.657Z,99.90
2018-06-02T02:56:54.166Z,99.90
2018-06-02T02:59:22.467Z,99.90
2018-06-02T03:01:49.986Z,99.90
2018-06-02T03:04:17.508Z,99.90
2018-06-02T03:06:45.026Z,99.90
2018-06-02T03:09:12.578Z,99.90
2018-06-02T03:11:40.858Z,99.90
2018-06-02T03:14:08.369Z,99.90
2018-06-02T03:16:35.906Z,99.90
2018-06-02T03:19:03.422Z,99.90
2018-06-02T03:21:31.740Z,99.90
2018-06-02T03:23:59.239Z,99.90
2018-06-02T03:26:26.798Z,99.90
2018-06-02T03:28:54.315Z,99.90
2018-06-02T03:31:21.865Z,99.90
2018-06-02T03:33:49.363Z,99.90
2018-06-02T03:36:16.865Z,99.90
2018-06-02T03:38:45.159Z,99.90
2018-06-02T03:41:12.685Z,99.90
2018-06-02T03:43:40.971Z,99.90
2018-06-02T03:46:09.240Z,99.90
2018-06-02T03:48:37.540Z,99.90
2018-06-02T03:51:05.058Z,99.90
2018-06-02T03:53:32.618Z,99.90
2018-06-02T03:56:00.124Z,99.90
2018-06-02T03:58:27.694Z,99.90
2018-06-02T04:00:55.196Z,99.90
2018-06-02T04:03:22.700Z,99.90
2018-06-02T04:05:50.240Z,99.90
2018-06-02T04:08:18.527Z,99.90
2018-06-02T04:10:46.056Z,99.90
2018-06-02T04:13:13.589Z,99.90
2018-06-02T04:15:41.117Z,99.90
2018-06-02T04:18:08.732Z,99.90
2018-06-02T04:20:36.266Z,99.90
2018-06-02T04:23:03.768Z,99.90
2018-06-02T04:25:32.040Z,99.90
2018-06-02T04:28:00.323Z,99.90
2018-06-02T04:30:28.606Z,99.90
2018-06-02T04:32:56.128Z,99.90
2018-06-02T04:35:23.653Z,99.90
2018-06-02T04:37:51.235Z,99.90
2018-06-02T04:40:18.716Z,99.90
2018-06-02T04:42:46.236Z,99.90
2018-06-02T04:45:13.765Z,99.90
2018-06-02T04:47:41.284Z,99.90
2018-06-02T04:50:08.815Z,99.90
2018-06-02T04:52:36.331Z,99.90
2018-06-02T04:55:04.622Z,99.90
2018-06-02T04:57:32.137Z,99.90
2018-06-02T04:59:59.694Z,99.90
2018-06-02T05:02:27.214Z,99.90
2018-06-02T05:04:54.745Z,99.90
2018-06-02T05:07:23.022Z,99.90
2018-06-02T05:09:50.553Z,99.90
2018-06-02T05:12:18.089Z,99.90
2018-06-02T05:14:45.603Z,99.90
2018-06-02T05:17:13.125Z,99.90
2018-06-02T05:19:40.644Z,99.90
2018-06-02T05:22:08.159Z,99.90
2018-06-02T05:24:36.453Z,99.90
2018-06-02T05:27:03.976Z,99.90
2018-06-02T05:29:31.492Z,99.90
2018-06-02T05:31:59.030Z,99.90
2018-06-02T05:34:26.545Z,99.90
2018-06-02T05:36:54.064Z,99.90
2018-06-02T05:39:21.589Z,99.90
2018-06-02T05:41:49.869Z,99.90
2018-06-02T05:44:18.156Z,99.90
2018-06-02T05:46:45.690Z,99.90
2018-06-02T05:49:13.211Z,99.90
2018-06-02T05:51:40.745Z,99.90
2018-06-02T05:54:08.289Z,99.90
2018-06-02T05:56:35.817Z,99.90
2018-06-02T05:59:03.359Z,99.90
2018-06-02T06:01:30.877Z,99.90
2018-06-02T06:03:58.418Z,99.90
2018-06-02T06:06:26.709Z,99.90
2018-06-02T06:08:54.216Z,99.90
2018-06-02T06:11:21.743Z,99.90
2018-06-02T06:13:49.273Z,99.90
2018-06-02T06:16:17.558Z,99.90
2018-06-02T06:18:45.085Z,99.90
2018-06-02T06:21:12.637Z,99.90
2018-06-02T06:23:40.140Z,99.90
2018-06-02T06:26:07.646Z,99.90
2018-06-02T06:28:35.188Z,99.90
2018-06-02T06:31:02.706Z,99.90
2018-06-02T06:33:30.242Z,99.90
2018-06-02T06:35:57.756Z,99.90
2018-06-02T06:38:25.279Z,99.90
2018-06-02T06:40:53.576Z,99.90
2018-06-02T06:43:21.102Z,99.90
2018-06-02T06:45:49.378Z,99.90
2018-06-02T06:48:17.668Z,99.90
2018-06-02T06:50:45.951Z,99.90
2018-06-02T06:53:13.470Z,99.90
2018-06-02T06:55:40.988Z,99.90
2018-06-02T06:58:08.501Z,99.90
2018-06-02T07:00:36.800Z,99.90
2018-06-02T07:03:04.327Z,99.90
2018-06-02T07:05:31.849Z,99.90
2018-06-02T07:07:59.350Z,99.90
2018-06-02T07:10:26.875Z,99.90
2018-06-02T07:12:54.392Z,99.90
2018-06-02T07:15:21.936Z,99.90
2018-06-02T07:17:50.305Z,99.90
2018-06-02T07:20:17.766Z,99.90
2018-06-02T07:22:46.064Z,99.90
2018-06-02T07:25:13.582Z,99.90
2018-06-02T07:27:41.109Z,99.90
2018-06-02T07:30:08.624Z,99.90
2018-06-02T07:32:36.955Z,99.90
2018-06-02T07:35:05.270Z,99.90
2018-06-02T07:37:32.787Z,99.90
2018-06-02T07:40:00.348Z,99.90
2018-06-02T07:42:27.860Z,99.90
2018-06-02T07:44:56.892Z,99.90
2018-06-02T07:47:24.393Z,99.90
2018-06-02T07:49:52.754Z,99.90
2018-06-02T07:52:20.205Z,99.90
2018-06-02T07:54:47.743Z,99.90
2018-06-02T07:57:15.274Z,99.90
2018-06-02T07:59:42.821Z,99.90
2018-06-02T08:02:11.096Z,99.90
2018-06-02T08:04:39.368Z,99.90
2018-06-02T08:07:07.665Z,99.90
2018-06-02T08:09:35.163Z,99.90
2018-06-02T08:12:02.682Z,99.90
2018-06-02T08:14:30.179Z,99.90
2018-06-02T08:16:57.711Z,99.90
2018-06-02T08:19:25.239Z,99.90
2018-06-02T08:21:53.534Z,99.90
2018-06-02T08:24:21.070Z,99.90
2018-06-02T08:26:49.362Z,99.20
2018-06-02T08:29:16.908Z,99.00
2018-06-02T08:31:45.203Z,98.60
2018-06-02T08:34:12.737Z,98.50
2018-06-02T08:36:40.253Z,96.30
2018-06-02T08:39:07.780Z,95.80
2018-06-02T08:41:35.304Z,99.30
2018-06-02T08:44:02.839Z,99.90
2018-06-02T08:46:30.353Z,99.50
2018-06-02T08:48:58.661Z,97.20
2018-06-02T08:51:26.175Z,97.10
2018-06-02T08:53:54.448Z,97.00
2018-06-02T08:56:22.753Z,95.90
2018-06-02T08:58:50.275Z,95.90
2018-06-02T09:01:17.832Z,97.40
2018-06-02T09:03:45.350Z,97.10
2018-06-02T09:06:12.888Z,97.20
2018-06-02T09:08:40.411Z,98.00
2018-06-02T09:11:08.706Z,95.00
2018-06-02T09:13:36.991Z,94.90
2018-06-02T09:16:05.274Z,94.30
2018-06-02T09:18:32.829Z,94.30
2018-06-02T09:21:00.336Z,94.30
2018-06-02T09:23:27.880Z,97.30
2018-06-02T09:25:55.388Z,96.20
2018-06-02T09:28:23.687Z,93.00
2018-06-02T09:30:51.195Z,93.00
2018-06-02T09:33:18.744Z,92.20
2018-06-02T09:35:46.252Z,92.40
2018-06-02T09:38:13.813Z,92.60
2018-06-02T09:40:42.102Z,94.00
2018-06-02T09:43:09.612Z,94.00
2018-06-02T09:45:37.143Z,93.40
2018-06-02T09:48:04.644Z,94.40
2018-06-02T09:50:32.180Z,95.20
2018-06-02T09:52:59.690Z,89.70
2018-06-02T09:55:27.213Z,89.00
2018-06-02T09:57:55.522Z,90.40
2018-06-02T10:00:25.600Z,91.40
2018-06-02T10:02:53.116Z,91.30
2018-06-02T10:05:20.657Z,90.20
2018-06-02T10:07:49.152Z,93.50
2018-06-02T10:10:16.653Z,93.40
2018-06-02T10:12:44.187Z,88.00
2018-06-02T10:15:11.716Z,86.40
2018-06-02T10:17:39.260Z,90.70
2018-06-02T10:20:07.554Z,87.40
2018-06-02T10:22:35.078Z,86.80
2018-06-02T10:25:02.605Z,86.10
2018-06-02T10:27:30.129Z,84.30
2018-06-02T10:29:57.648Z,87.90
2018-06-02T10:32:25.274Z,86.30
2018-06-02T10:34:52.817Z,85.30
2018-06-02T10:37:20.337Z,85.50
2018-06-02T10:39:48.627Z,85.10
2018-06-02T10:42:16.913Z,89.00
2018-06-02T10:44:45.208Z,84.90
2018-06-02T10:47:12.733Z,84.90
2018-06-02T10:49:41.046Z,87.10
2018-06-02T10:52:08.618Z,87.10
2018-06-02T10:54:36.144Z,89.80
2018-06-02T10:57:04.441Z,87.70
2018-06-02T10:59:31.959Z,87.70
2018-06-02T11:01:59.480Z,89.20
2018-06-02T11:04:27.016Z,82.50
2018-06-02T11:06:54.540Z,83.10
2018-06-02T11:09:22.812Z,74.70
2018-06-02T11:11:50.361Z,74.80
2018-06-02T11:14:17.867Z,78.30
2018-06-02T11:16:45.408Z,81.20
2018-06-02T11:19:13.685Z,73.30
2018-06-02T11:21:41.967Z,69.30
2018-06-02T11:24:09.488Z,69.40
2018-06-02T11:26:37.022Z,72.00
2018-06-02T11:29:04.557Z,72.80
2018-06-02T11:31:32.071Z,75.90
2018-06-02T11:33:59.592Z,74.50
2018-06-02T11:36:27.111Z,78.40
2018-06-02T11:38:55.484Z,79.50
2018-06-02T11:41:23.055Z,79.40
2018-06-02T11:43:50.601Z,77.60
2018-06-02T11:46:18.903Z,80.60
2018-06-02T11:48:46.425Z,80.50
2018-06-02T11:51:13.955Z,74.80
2018-06-02T11:53:41.468Z,75.30
2018-06-02T11:56:08.996Z,74.50
2018-06-02T11:58:36.520Z,79.00
2018-06-02T12:01:04.101Z,75.70
2018-06-02T12:03:31.592Z,73.20
2018-06-02T12:05:59.886Z,73.30
2018-06-02T12:08:27.407Z,73.20
2018-06-02T12:10:54.922Z,71.00
2018-06-02T12:13:22.453Z,72.70
2018-06-02T12:15:50.720Z,70.10
2018-06-02T12:18:19.028Z,68.50
2018-06-02T12:20:46.574Z,68.40
2018-06-02T12:23:14.106Z,69.30
2018-06-02T12:25:42.390Z,63.00
2018-06-02T12:28:10.734Z,66.50
2018-06-02T12:30:38.239Z,66.40
2018-06-02T12:33:05.777Z,68.70
2018-06-02T12:35:34.068Z,66.00
2018-06-02T12:38:12.884Z,66.40
2018-06-02T12:40:40.432Z,66.30
2018-06-02T12:43:08.709Z,64.20
2018-06-02T12:45:36.260Z,63.90
2018-06-02T12:48:03.779Z,62.80
2018-06-02T12:50:31.325Z,62.30
2018-06-02T12:52:58.838Z,60.30
2018-06-02T12:55:27.162Z,59.70
2018-06-02T12:57:54.669Z,60.00
2018-06-02T13:00:22.178Z,64.30
2018-06-02T13:02:49.725Z,63.10
2018-06-02T13:05:17.239Z,61.20
2018-06-02T13:07:44.764Z,67.40
2018-06-02T13:10:12.287Z,66.00
2018-06-02T13:12:40.619Z,66.10
2018-06-02T13:15:08.133Z,66.10
2018-06-02T13:17:35.687Z,64.90
2018-06-02T13:20:03.973Z,64.10
2018-06-02T13:22:31.584Z,64.10
2018-06-02T13:24:59.141Z,64.80
2018-06-02T13:27:26.667Z,64.00
2018-06-02T13:29:54.214Z,63.00
2018-06-02T13:32:21.729Z,63.70
2018-06-02T13:34:49.272Z,60.50
2018-06-02T13:37:16.795Z,63.40
2018-06-02T13:39:44.337Z,64.10
2018-06-02T13:42:12.629Z,67.70
2018-06-02T13:44:40.356Z,67.60
2018-06-02T13:47:07.865Z,65.40
2018-06-02T13:49:35.368Z,62.60
2018-06-02T13:52:02.929Z,65.00
2018-06-02T13:54:30.455Z,67.10
2018-06-02T13:56:57.996Z,66.30
2018-06-02T13:59:25.500Z,67.90
2018-06-02T14:01:53.829Z,66.80
2018-06-02T14:04:21.403Z,66.80
2018-06-02T14:06:48.937Z,66.00
2018-06-02T14:09:16.484Z,72.00
2018-06-02T14:11:44.760Z,72.60
2018-06-02T14:14:13.063Z,70.40
2018-06-02T14:16:40.581Z,70.40
2018-06-02T14:19:08.881Z,76.60
2018-06-02T14:21:36.409Z,76.60
2018-06-02T14:24:03.930Z,79.30
2018-06-02T14:26:31.449Z,81.10
2018-06-02T14:28:59.000Z,79.90
2018-06-02T14:31:27.276Z,77.20
2018-06-02T14:33:55.559Z,78.30
2018-06-02T14:36:23.850Z,76.40
2018-06-02T14:38:51.384Z,76.30
2018-06-02T14:41:19.685Z,80.20
2018-06-02T14:43:47.234Z,80.10
2018-06-02T14:46:14.775Z,80.60
2018-06-02T14:48:42.297Z,74.60
2018-06-02T14:51:09.817Z,77.50
2018-06-02T14:53:37.326Z,78.30
2018-06-02T14:56:04.867Z,80.20
2018-06-02T14:58:32.386Z,77.70
2018-06-02T15:01:00.661Z,72.00
2018-06-02T15:03:28.957Z,72.60
2018-06-02T15:05:56.481Z,72.50
2018-06-02T15:08:24.767Z,73.90
2018-06-02T15:10:52.322Z,73.90
2018-06-02T15:13:20.608Z,76.70
2018-06-02T15:15:48.890Z,78.10
2018-06-02T15:18:16.416Z,78.10
2018-06-02T15:20:43.947Z,77.30
2018-06-02T15:23:11.490Z,78.80
2018-06-02T15:25:39.014Z,76.70
2018-06-02T15:28:07.290Z,76.80
2018-06-02T15:30:35.581Z,79.20
2018-06-02T15:33:03.087Z,79.40
2018-06-02T15:35:30.620Z,76.70
2018-06-02T15:37:58.134Z,75.70
2018-06-02T15:40:26.437Z,74.60
2018-06-02T15:42:53.957Z,74.60
2018-06-02T15:45:21.493Z,76.40
2018-06-02T15:47:49.004Z,77.10
2018-06-02T15:50:17.302Z,73.90
2018-06-02T15:52:44.837Z,74.00
2018-06-02T15:55:13.121Z,76.90
2018-06-02T15:57:40.665Z,76.90
2018-06-02T16:00:08.945Z,76.20
2018-06-02T16:02:37.288Z,77.10
2018-06-02T16:05:04.790Z,77.10
2018-06-02T16:07:32.335Z,78.80
2018-06-02T16:10:00.624Z,80.80
2018-06-02T16:12:28.901Z,78.90
2018-06-02T16:14:57.207Z,81.20
2018-06-02T16:17:24.731Z,81.20
2018-06-02T16:19:52.282Z,80.50
2018-06-02T16:22:20.552Z,82.00
2018-06-02T16:24:48.855Z,82.50
2018-06-02T16:27:16.388Z,82.40
2018-06-02T16:29:44.684Z,82.90
2018-06-02T16:32:12.218Z,82.90
2018-06-02T16:34:39.753Z,80.50
2018-06-02T16:37:07.269Z,79.00
2018-06-02T16:39:34.781Z,80.30
2018-06-02T16:42:02.339Z,80.50
2018-06-02T16:44:29.848Z,81.50
2018-06-02T16:46:57.384Z,82.10
2018-06-02T16:49:25.676Z,79.20
2018-06-02T16:51:53.194Z,79.10
2018-06-02T16:54:20.709Z,80.50
2018-06-02T16:56:48.242Z,80.60
2018-06-02T16:59:16.516Z,82.20
2018-06-02T17:01:44.797Z,83.60
2018-06-02T17:04:13.099Z,84.40
2018-06-02T17:06:40.627Z,84.30
2018-06-02T17:09:08.923Z,83.30
2018-06-02T17:11:36.438Z,83.30
2018-06-02T17:14:04.005Z,83.00
2018-06-02T17:16:31.487Z,82.60
2018-06-02T17:18:59.018Z,83.60
2018-06-02T17:21:26.530Z,82.10
2018-06-02T17:23:54.068Z,83.00
2018-06-02T17:26:21.585Z,82.20
2018-06-02T17:28:49.089Z,83.20
2018-06-02T17:31:16.617Z,82.70
2018-06-02T17:33:44.167Z,85.20
2018-06-02T17:36:11.702Z,85.10
2018-06-02T17:38:39.226Z,87.30
2018-06-02T17:41:06.744Z,87.50
2018-06-02T17:43:35.052Z,87.90
2018-06-02T17:46:03.378Z,89.10
2018-06-02T17:48:31.017Z,88.90
2018-06-02T17:50:58.520Z,89.00
2018-06-02T17:53:26.045Z,90.30
2018-06-02T17:55:53.557Z,90.30
2018-06-02T17:58:21.871Z,91.00
2018-06-02T18:00:49.382Z,91.00
2018-06-02T18:03:17.686Z,92.80
2018-06-02T18:05:45.205Z,92.80
2018-06-02T18:08:13.518Z,92.80
2018-06-02T18:10:41.024Z,92.40
2018-06-02T18:13:08.554Z,92.60
2018-06-02T18:15:36.085Z,91.80
2018-06-02T18:18:04.366Z,90.90
2018-06-02T18:20:32.673Z,91.80
2018-06-02T18:23:03.715Z,91.80
2018-06-02T18:25:31.241Z,92.50
2018-06-02T18:27:59.510Z,93.20
2018-06-02T18:30:27.809Z,93.30
2018-06-02T18:32:55.318Z,93.60
2018-06-02T18:35:22.853Z,93.90
2018-06-02T18:37:50.369Z,94.00
2018-06-02T18:40:18.651Z,94.00
2018-06-02T18:43:14.255Z,94.00
2018-06-02T18:45:42.756Z,94.40
2018-06-02T18:48:11.330Z,94.60
2018-06-02T18:50:39.955Z,95.00
2018-06-02T18:53:08.520Z,95.60
2018-06-02T18:55:37.026Z,96.20
2018-06-02T18:58:05.583Z,97.50
2018-06-02T19:00:34.110Z,98.40
2018-06-02T19:03:02.674Z,99.40
2018-06-02T19:05:31.426Z,99.90
2018-06-02T19:08:00.025Z,99.90
2018-06-02T19:10:28.573Z,99.90
2018-06-02T19:12:57.108Z,99.90
2018-06-02T19:15:25.724Z,99.90
2018-06-02T19:17:54.287Z,99.90
2018-06-02T19:20:22.846Z,99.90
2018-06-02T19:22:51.404Z,99.90
2018-06-02T19:25:19.943Z,99.90
2018-06-02T19:27:48.469Z,99.90
2018-06-02T19:30:17.050Z,99.90
2018-06-02T19:32:46.291Z,99.90
2018-06-02T19:35:14.889Z,99.90
2018-06-02T19:37:43.456Z,99.90
2018-06-02T19:40:12.844Z,99.90
2018-06-02T19:42:41.426Z,99.90
2018-06-02T19:45:09.931Z,99.90
2018-06-02T19:47:38.538Z,99.90
2018-06-02T19:50:07.078Z,99.90
2018-06-02T19:52:35.568Z,99.90
2018-06-02T19:55:04.124Z,99.60
2018-06-02T19:57:32.696Z,99.10
2018-06-02T20:00:01.236Z,99.90
2018-06-02T20:02:29.799Z,99.90
2018-06-02T20:04:58.346Z,99.90
2018-06-02T20:07:26.898Z,99.90
2018-06-02T20:09:55.492Z,99.90
2018-06-02T20:12:24.053Z,99.90
2018-06-02T20:14:52.625Z,99.90
2018-06-02T20:17:21.121Z,99.90
2018-06-02T20:19:49.643Z,99.90
2018-06-02T20:22:18.188Z,99.90
2018-06-02T20:24:46.748Z,99.90
2018-06-02T20:27:15.279Z,99.90
2018-06-02T20:29:43.873Z,99.90
2018-06-02T20:32:12.396Z,99.90
2018-06-02T20:34:40.897Z,99.90
2018-06-02T20:37:09.416Z,99.90
2018-06-02T20:39:37.930Z,99.90
2018-06-02T20:42:06.473Z,99.90
2018-06-02T20:44:35.032Z,99.90
2018-06-02T20:47:03.608Z,99.90
2018-06-02T20:49:32.171Z,99.90
2018-06-02T20:52:00.727Z,99.90
2018-06-02T20:54:29.252Z,99.90
2018-06-02T20:56:57.732Z,99.90
2018-06-02T20:59:26.337Z,99.90
2018-06-02T21:01:54.886Z,99.90
2018-06-02T21:04:23.465Z,99.90
2018-06-02T21:06:52.056Z,99.90
2018-06-02T21:09:20.597Z,99.90
2018-06-02T21:11:49.119Z,99.90
2018-06-02T21:14:17.644Z,99.90
2018-06-02T21:16:46.135Z,99.90
2018-06-02T21:19:14.681Z,99.90
2018-06-02T21:21:43.212Z,99.90
2018-06-02T21:24:11.962Z,99.90
2018-06-02T21:26:40.473Z,99.90
2018-06-02T21:29:09.018Z,99.90
2018-06-02T21:31:37.614Z,99.90
2018-06-02T21:34:06.149Z,99.90
2018-06-02T21:36:34.673Z,99.90
2018-06-02T21:39:03.659Z,99.90
2018-06-02T21:41:32.283Z,99.90
2018-06-02T21:44:00.830Z,99.90
2018-06-02T21:46:29.402Z,99.90
2018-06-02T21:48:57.988Z,99.90
2018-06-02T21:51:26.484Z,99.90
2018-06-02T21:53:55.038Z,99.90
2018-06-02T21:56:23.566Z,99.90
2018-06-02T21:58:52.245Z,99.90
2018-06-02T22:01:20.825Z,99.90
2018-06-02T22:03:49.410Z,99.90
2018-06-02T22:11:14.314Z,99.90
2018-06-02T22:13:42.925Z,99.90
2018-06-02T22:16:11.523Z,99.90
2018-06-02T22:18:40.051Z,99.90
2018-06-02T22:21:08.603Z,99.90
2018-06-02T22:23:37.136Z,99.90
2018-06-02T22:26:05.706Z,99.90
2018-06-02T22:28:34.242Z,99.90
2018-06-02T22:31:02.805Z,99.90
2018-06-02T22:33:31.326Z,99.90
2018-06-02T22:35:59.859Z,99.90
2018-06-02T22:38:28.417Z,99.90
2018-06-02T22:40:56.904Z,99.90
2018-06-02T22:43:25.454Z,99.90
2018-06-02T22:45:53.959Z,99.90
2018-06-02T22:48:22.590Z,99.90
2018-06-02T22:50:51.143Z,99.90
2018-06-02T22:53:19.748Z,99.90
2018-06-02T22:55:48.438Z,99.90
2018-06-02T22:58:17.126Z,99.90
2018-06-02T23:00:45.767Z,99.90
2018-06-02T23:03:14.372Z,99.90
2018-06-02T23:05:42.979Z,99.90
2018-06-02T23:08:11.588Z,99.90
2018-06-02T23:10:40.165Z,99.90
2018-06-02T23:13:08.671Z,99.90
2018-06-02T23:15:37.242Z,99.90
2018-06-02T23:18:05.802Z,99.90
2018-06-02T23:20:34.337Z,99.90
2018-06-02T23:23:02.888Z,99.90
2018-06-02T23:25:31.479Z,99.90
2018-06-02T23:28:00.037Z,99.90
2018-06-02T23:30:28.560Z,99.90
2018-06-02T23:32:57.064Z,99.90
2018-06-02T23:35:25.593Z,99.90
2018-06-02T23:37:54.172Z,99.90
2018-06-02T23:40:22.738Z,99.90
2018-06-02T23:42:51.343Z,99.90
2018-06-02T23:45:19.877Z,99.90
2018-06-02T23:47:48.473Z,99.90
2018-06-02T23:50:17.039Z,99.90
2018-06-02T23:52:45.616Z,99.90
2018-06-02T23:55:14.166Z,99.90
2018-06-02T23:57:42.700Z,99.90
